Time;durP1;ratioP1;P1;durP2;ratioP2;P2;SDS_P1;SDS_P2;PMS_P1;PMS_P2;Temp;Humidity;BMP_temperature;BMP_pressure;BME280_temperature;BME280_humidity;BME280_pressure;Samples;Min_cycle;Max_cycle;Signal;HPM_P1;HPM_P2
2024/01/27 00:02:00;;;;;;;;;;;17.90;59.80;;;;;;7326783;19;9259;-70
2024/01/27 00:04:29;;;;;;;;;;;17.90;59.80;;;;;;7326798;19;9020;-70
2024/01/27 00:06:59;;;;;;;;;;;17.80;59.80;;;;;;7326475;19;9342;-70
2024/01/27 00:09:29;;;;;;;;;;;17.80;59.80;;;;;;7326549;19;9283;-70
2024/01/27 00:11:59;;;;;;;;;;;17.80;59.80;;;;;;7326141;19;9606;-69
2024/01/27 00:14:29;;;;;;;;;;;17.80;59.80;;;;;;7326219;19;9048;-69
2024/01/27 00:17:01;;;;;;;;;;;17.80;60.40;;;;;;7326366;19;9526;-70
2024/01/27 00:19:31;;;;;;;;;;;17.80;59.80;;;;;;7325973;19;9393;-69
2024/01/27 00:22:02;;;;;;;;;;;17.80;59.90;;;;;;7326282;19;9324;-69
2024/01/27 00:24:31;;;;;;;;;;;17.80;59.90;;;;;;7325521;19;9276;-69
2024/01/27 00:27:02;;;;;;;;;;;17.80;59.90;;;;;;7326151;19;9328;-69
2024/01/27 00:29:32;;;;;;;;;;;17.70;59.70;;;;;;7326781;19;9308;-69
2024/01/27 00:32:04;;;;;;;;;;;17.80;59.80;;;;;;7327550;19;9012;-70
2024/01/27 00:34:34;;;;;;;;;;;17.80;59.70;;;;;;7330655;19;9210;-69
2024/01/27 00:37:04;;;;;;;;;;;17.80;59.60;;;;;;7326557;19;9015;-70
2024/01/27 00:39:35;;;;;;;;;;;17.80;59.60;;;;;;7326138;19;9126;-70
2024/01/27 00:42:05;;;;;;;;;;;17.90;59.50;;;;;;7324992;19;9262;-70
2024/01/27 00:44:35;;;;;;;;;;;17.90;59.40;;;;;;7325485;19;9191;-69
2024/01/27 00:47:07;;;;;;;;;;;18.00;59.40;;;;;;7325507;19;9189;-69
2024/01/27 00:49:37;;;;;;;;;;;18.10;59.40;;;;;;7325443;19;8952;-70
2024/01/27 00:52:07;;;;;;;;;;;18.10;59.30;;;;;;7324701;19;9971;-69
2024/01/27 00:54:37;;;;;;;;;;;18.30;59.20;;;;;;7325072;19;9261;-69
2024/01/27 00:57:07;;;;;;;;;;;18.30;59.20;;;;;;7323952;19;9519;-69
2024/01/27 00:59:37;;;;;;;;;;;18.40;59.10;;;;;;7324877;19;10461;-70
2024/01/27 01:02:09;;;;;;;;;;;18.40;59.00;;;;;;7324296;19;9236;-70
2024/01/27 01:04:38;;;;;;;;;;;18.50;59.00;;;;;;7324160;19;9138;-69
2024/01/27 01:07:08;;;;;;;;;;;18.60;58.90;;;;;;7325001;19;9201;-69
2024/01/27 01:09:37;;;;;;;;;;;18.60;58.80;;;;;;7324010;19;9217;-69
2024/01/27 01:12:07;;;;;;;;;;;18.60;58.80;;;;;;7324824;19;9233;-69
2024/01/27 01:14:36;;;;;;;;;;;18.60;58.70;;;;;;7323314;19;9979;-69
2024/01/27 01:17:05;;;;;;;;;;;18.70;58.60;;;;;;7320813;19;10103;-72
2024/01/27 01:19:37;;;;;;;;;;;18.70;58.50;;;;;;7318347;19;10015;-70
2024/01/27 01:22:07;;;;;;;;;;;18.70;58.50;;;;;;7322564;19;9250;-70
2024/01/27 01:24:36;;;;;;;;;;;18.70;58.30;;;;;;7323006;19;9966;-70
2024/01/27 01:27:05;;;;;;;;;;;18.70;58.30;;;;;;7323852;19;9341;-70
2024/01/27 01:29:34;;;;;;;;;;;18.70;58.30;;;;;;7323680;19;9023;-70
2024/01/27 01:32:04;;;;;;;;;;;18.70;58.30;;;;;;7322752;19;9275;-69
2024/01/27 01:34:34;;;;;;;;;;;18.60;58.30;;;;;;7322881;19;9019;-69
2024/01/27 01:37:06;;;;;;;;;;;18.60;58.20;;;;;;7323043;19;9202;-69
2024/01/27 01:39:35;;;;;;;;;;;18.60;58.30;;;;;;7323493;19;9967;-69
2024/01/27 01:42:04;;;;;;;;;;;18.50;58.40;;;;;;7322320;19;9246;-69
2024/01/27 01:44:34;;;;;;;;;;;18.50;58.40;;;;;;7323017;19;9142;-69
2024/01/27 01:47:03;;;;;;;;;;;18.50;58.50;;;;;;7323070;19;9275;-69
2024/01/27 01:49:32;;;;;;;;;;;18.50;58.50;;;;;;7322311;19;10324;-68
2024/01/27 01:52:01;;;;;;;;;;;18.40;58.50;;;;;;7322461;19;9252;-68
2024/01/27 01:54:33;;;;;;;;;;;18.40;58.50;;;;;;7321335;19;9198;-69
2024/01/27 01:57:02;;;;;;;;;;;18.30;58.60;;;;;;7322910;19;9546;-68
2024/01/27 01:59:31;;;;;;;;;;;18.30;58.60;;;;;;7322967;19;9920;-69
2024/01/27 02:02:00;;;;;;;;;;;18.30;58.80;;;;;;7322195;19;9173;-68
2024/01/27 02:04:30;;;;;;;;;;;18.20;58.80;;;;;;7322289;19;9485;-68
2024/01/27 02:06:59;;;;;;;;;;;18.20;58.90;;;;;;7322405;19;9462;-69
2024/01/27 02:09:29;;;;;;;;;;;18.20;58.90;;;;;;7323304;19;9247;-69
2024/01/27 02:12:02;;;;;;;;;;;18.10;58.90;;;;;;7328651;19;8953;-68
2024/01/27 02:14:31;;;;;;;;;;;18.10;59.00;;;;;;7328682;19;9524;-69
2024/01/27 02:17:02;;;;;;;;;;;18.10;59.10;;;;;;7328029;19;9334;-68
2024/01/27 02:19:31;;;;;;;;;;;18.10;59.10;;;;;;7327878;19;9221;-68
2024/01/27 02:22:02;;;;;;;;;;;18.00;59.10;;;;;;7328996;19;8952;-68
2024/01/27 02:24:34;;;;;;;;;;;18.00;59.10;;;;;;7324194;19;9193;-68
2024/01/27 02:27:04;;;;;;;;;;;18.00;59.20;;;;;;7328414;19;10063;-68
2024/01/27 02:29:34;;;;;;;;;;;18.00;59.20;;;;;;7327729;19;9232;-68
2024/01/27 02:32:04;;;;;;;;;;;18.00;59.30;;;;;;7327902;19;9247;-68
2024/01/27 02:34:33;;;;;;;;;;;17.90;59.30;;;;;;7328374;19;9371;-68
2024/01/27 02:37:03;;;;;;;;;;;17.90;59.40;;;;;;7328633;19;9195;-68
2024/01/27 02:39:36;;;;;;;;;;;17.90;59.30;;;;;;7327374;19;9259;-69
2024/01/27 02:42:06;;;;;;;;;;;17.90;60.10;;;;;;7328225;19;9456;-69
2024/01/27 02:44:36;;;;;;;;;;;17.80;59.40;;;;;;7327705;19;9207;-69
2024/01/27 02:47:06;;;;;;;;;;;17.80;59.40;;;;;;7328570;19;9257;-69
2024/01/27 02:49:36;;;;;;;;;;;17.80;59.40;;;;;;7327449;19;9268;-69
2024/01/27 02:52:06;;;;;;;;;;;17.80;59.50;;;;;;7328969;19;9263;-69
2024/01/27 02:54:38;;;;;;;;;;;17.80;59.50;;;;;;7328379;19;9291;-69
2024/01/27 02:57:08;;;;;;;;;;;17.80;59.40;;;;;;7330603;19;9233;-69
2024/01/27 02:59:57;;;;;;;;;;;17.80;59.40;;;;;;7331056;19;9493;-69
2024/01/27 03:02:26;;;;;;;;;;;17.80;59.40;;;;;;7327887;19;9220;-69
2024/01/27 03:04:55;;;;;;;;;;;17.80;59.40;;;;;;7327955;19;8944;-69
2024/01/27 03:07:24;;;;;;;;;;;17.80;59.20;;;;;;7328085;19;9738;-69
2024/01/27 03:09:56;;;;;;;;;;;17.90;59.20;;;;;;7326079;19;9150;-69
2024/01/27 03:12:25;;;;;;;;;;;17.90;59.10;;;;;;7327584;19;9020;-69
2024/01/27 03:14:54;;;;;;;;;;;17.90;59.00;;;;;;7325606;19;9456;-69
2024/01/27 03:17:23;;;;;;;;;;;18.00;59.00;;;;;;7326557;19;9207;-69
2024/01/27 03:19:52;;;;;;;;;;;18.10;59.10;;;;;;7326718;19;9459;-69
2024/01/27 03:22:21;;;;;;;;;;;18.20;59.00;;;;;;7326924;19;9311;-69
2024/01/27 03:24:51;;;;;;;;;;;18.20;58.80;;;;;;7326788;19;9197;-70
2024/01/27 03:27:23;;;;;;;;;;;18.30;58.80;;;;;;7327642;19;9028;-70
2024/01/27 03:29:52;;;;;;;;;;;18.30;58.70;;;;;;7326454;19;9432;-69
2024/01/27 03:32:21;;;;;;;;;;;18.50;58.70;;;;;;7327236;19;9161;-69
2024/01/27 03:34:50;;;;;;;;;;;18.50;58.50;;;;;;7326121;19;9564;-69
2024/01/27 03:37:19;;;;;;;;;;;18.60;58.50;;;;;;7327445;19;9248;-69
2024/01/27 03:39:48;;;;;;;;;;;18.60;58.50;;;;;;7327150;19;9245;-69
2024/01/27 03:42:17;;;;;;;;;;;18.60;58.30;;;;;;7326483;19;9233;-69
2024/01/27 03:44:48;;;;;;;;;;;18.60;58.30;;;;;;7326805;19;9218;-69
2024/01/27 03:47:17;;;;;;;;;;;18.60;58.20;;;;;;7325235;19;9233;-69
2024/01/27 03:49:46;;;;;;;;;;;18.60;58.10;;;;;;7326055;19;9219;-69
2024/01/27 03:52:15;;;;;;;;;;;18.60;58.10;;;;;;7325127;19;9268;-69
2024/01/27 03:54:44;;;;;;;;;;;18.60;57.90;;;;;;7326462;19;9217;-69
2024/01/27 03:57:13;;;;;;;;;;;18.60;57.90;;;;;;7324673;19;9072;-69
2024/01/27 03:59:43;;;;;;;;;;;18.60;57.90;;;;;;7326671;19;9496;-69
2024/01/27 04:02:16;;;;;;;;;;;18.60;57.90;;;;;;7326560;19;8948;-70
2024/01/27 04:04:45;;;;;;;;;;;18.60;57.90;;;;;;7327014;19;9260;-69
2024/01/27 04:07:15;;;;;;;;;;;18.50;58.00;;;;;;7324807;19;9275;-69
2024/01/27 04:09:45;;;;;;;;;;;18.50;58.00;;;;;;7325753;19;9508;-69
2024/01/27 04:12:15;;;;;;;;;;;18.50;58.00;;;;;;7324657;19;9217;-69
2024/01/27 04:14:44;;;;;;;;;;;18.40;58.10;;;;;;7325255;19;9364;-69
2024/01/27 04:17:17;;;;;;;;;;;18.40;58.20;;;;;;7324321;19;9469;-69
2024/01/27 04:19:46;;;;;;;;;;;18.40;58.10;;;;;;7325500;19;8956;-69
2024/01/27 04:22:16;;;;;;;;;;;18.30;58.10;;;;;;7325825;19;9559;-69
2024/01/27 04:24:46;;;;;;;;;;;18.30;58.10;;;;;;7325447;19;9991;-69
2024/01/27 04:27:16;;;;;;;;;;;18.30;58.30;;;;;;7325597;19;9178;-70
2024/01/27 04:29:46;;;;;;;;;;;18.20;58.30;;;;;;7324940;19;9213;-69
2024/01/27 04:32:18;;;;;;;;;;;18.20;58.50;;;;;;7323359;19;9161;-69
2024/01/27 04:34:48;;;;;;;;;;;18.20;58.50;;;;;;7324966;19;9301;-69
2024/01/27 04:37:18;;;;;;;;;;;18.10;58.50;;;;;;7324366;19;9204;-69
2024/01/27 04:39:47;;;;;;;;;;;18.10;58.50;;;;;;7325756;19;9205;-69
2024/01/27 04:42:17;;;;;;;;;;;18.10;58.60;;;;;;7324599;19;9519;-69
2024/01/27 04:44:47;;;;;;;;;;;18.00;58.50;;;;;;7324745;19;9029;-69
2024/01/27 04:47:19;;;;;;;;;;;18.00;58.60;;;;;;7324049;19;9243;-69
2024/01/27 04:49:49;;;;;;;;;;;18.00;58.70;;;;;;7324230;19;9020;-69
2024/01/27 04:52:19;;;;;;;;;;;18.00;58.80;;;;;;7324418;19;9987;-69
2024/01/27 04:54:48;;;;;;;;;;;17.90;58.70;;;;;;7324996;19;9266;-68
2024/01/27 04:57:19;;;;;;;;;;;17.90;58.80;;;;;;7323655;19;10072;-70
2024/01/27 04:59:49;;;;;;;;;;;17.90;58.80;;;;;;7324590;19;9263;-69
2024/01/27 05:02:21;;;;;;;;;;;17.90;59.00;;;;;;7324383;19;11465;-68
2024/01/27 05:04:51;;;;;;;;;;;17.80;58.90;;;;;;7324536;19;8953;-70
2024/01/27 05:07:21;;;;;;;;;;;17.80;58.90;;;;;;7323273;19;9329;-71
2024/01/27 05:09:51;;;;;;;;;;;17.80;58.90;;;;;;7324250;19;9987;-70
2024/01/27 05:12:20;;;;;;;;;;;17.80;58.90;;;;;;7323614;19;9217;-69
2024/01/27 05:14:50;;;;;;;;;;;17.70;58.90;;;;;;7323896;19;9023;-70
2024/01/27 05:17:22;;;;;;;;;;;17.80;59.00;;;;;;7323827;19;9207;-69
2024/01/27 05:19:53;;;;;;;;;;;17.80;58.80;;;;;;7325988;19;9173;-70
2024/01/27 05:22:22;;;;;;;;;;;17.90;58.80;;;;;;7328465;19;9204;-70
2024/01/27 05:24:52;;;;;;;;;;;17.90;58.70;;;;;;7325013;19;9265;-71
2024/01/27 05:27:22;;;;;;;;;;;17.90;58.60;;;;;;7324128;19;9255;-70
2024/01/27 05:29:52;;;;;;;;;;;18.00;59.30;;;;;;7323846;19;9226;-70
2024/01/27 05:32:24;;;;;;;;;;;18.00;58.60;;;;;;7323774;19;9239;-69
2024/01/27 05:34:54;;;;;;;;;;;18.10;58.70;;;;;;7322312;19;9231;-69
2024/01/27 05:37:23;;;;;;;;;;;18.20;58.40;;;;;;7323572;19;10069;-69
2024/01/27 05:39:53;;;;;;;;;;;18.30;58.50;;;;;;7323951;19;9206;-69
2024/01/27 05:42:23;;;;;;;;;;;18.30;58.30;;;;;;7322164;19;9288;-70
2024/01/27 05:44:53;;;;;;;;;;;18.40;58.30;;;;;;7328206;19;9245;-70
2024/01/27 05:47:26;;;;;;;;;;;18.40;58.20;;;;;;7328802;19;9205;-69
2024/01/27 05:49:55;;;;;;;;;;;18.50;58.20;;;;;;7329894;19;9226;-69
2024/01/27 05:52:25;;;;;;;;;;;18.60;58.20;;;;;;7328820;19;9191;-69
2024/01/27 05:54:56;;;;;;;;;;;18.60;58.00;;;;;;7329996;19;10157;-69
2024/01/27 05:57:26;;;;;;;;;;;18.60;58.00;;;;;;7328638;19;9275;-69
2024/01/27 05:59:56;;;;;;;;;;;18.70;57.90;;;;;;7330467;19;9514;-70
2024/01/27 06:02:28;;;;;;;;;;;18.70;57.90;;;;;;7329050;19;9300;-70
2024/01/27 06:04:58;;;;;;;;;;;18.70;57.80;;;;;;7327841;19;9247;-69
2024/01/27 06:07:28;;;;;;;;;;;18.70;57.70;;;;;;7329037;19;9550;-69
2024/01/27 06:09:57;;;;;;;;;;;18.70;57.60;;;;;;7327907;19;9019;-69
2024/01/27 06:12:27;;;;;;;;;;;18.70;57.70;;;;;;7328941;19;9240;-69
2024/01/27 06:14:58;;;;;;;;;;;18.70;58.20;;;;;;7329004;19;9955;-70
2024/01/27 06:17:31;;;;;;;;;;;18.70;57.50;;;;;;7329382;19;9257;-70
2024/01/27 06:20:00;;;;;;;;;;;18.60;57.50;;;;;;7328660;19;9343;-70
2024/01/27 06:22:31;;;;;;;;;;;18.60;57.50;;;;;;7329285;19;9407;-69
2024/01/27 06:25:01;;;;;;;;;;;18.60;57.50;;;;;;7328018;19;9286;-70
2024/01/27 06:27:30;;;;;;;;;;;18.60;57.60;;;;;;7329493;19;9267;-69
2024/01/27 06:30:01;;;;;;;;;;;18.40;57.50;;;;;;7329506;19;9237;-70
2024/01/27 06:32:33;;;;;;;;;;;18.50;57.60;;;;;;7328876;19;9237;-69
2024/01/27 06:35:03;;;;;;;;;;;18.40;58.30;;;;;;7329169;19;9271;-69
2024/01/27 06:37:33;;;;;;;;;;;18.40;57.70;;;;;;7328613;19;9216;-69
2024/01/27 06:40:03;;;;;;;;;;;18.40;57.70;;;;;;7328401;19;9154;-70
2024/01/27 06:42:33;;;;;;;;;;;18.30;58.40;;;;;;7328060;19;9225;-69
2024/01/27 06:45:02;;;;;;;;;;;18.30;57.80;;;;;;7329035;19;9204;-69
2024/01/27 06:47:35;;;;;;;;;;;18.20;57.80;;;;;;7327947;19;9146;-69
2024/01/27 06:50:04;;;;;;;;;;;18.20;57.90;;;;;;7328693;19;9217;-69
2024/01/27 06:52:34;;;;;;;;;;;18.10;58.00;;;;;;7328251;19;9257;-70
2024/01/27 06:55:06;;;;;;;;;;;18.10;58.10;;;;;;7326968;19;9019;-69
2024/01/27 06:57:36;;;;;;;;;;;18.10;58.10;;;;;;7327953;19;9245;-70
2024/01/27 07:00:07;;;;;;;;;;;18.10;58.10;;;;;;7326424;19;9652;-70
2024/01/27 07:02:39;;;;;;;;;;;18.00;58.10;;;;;;7328035;19;9637;-69
2024/01/27 07:05:08;;;;;;;;;;;18.00;58.20;;;;;;7327103;19;9215;-69
2024/01/27 07:07:38;;;;;;;;;;;18.00;58.20;;;;;;7327676;19;9430;-70
2024/01/27 07:10:10;;;;;;;;;;;18.00;58.30;;;;;;7327527;19;9161;-70
2024/01/27 07:12:39;;;;;;;;;;;17.90;58.30;;;;;;7327474;19;9253;-70
2024/01/27 07:15:09;;;;;;;;;;;17.90;58.40;;;;;;7325515;19;8944;-70
2024/01/27 07:17:41;;;;;;;;;;;17.90;58.40;;;;;;7326912;19;9223;-69
2024/01/27 07:20:11;;;;;;;;;;;17.80;58.40;;;;;;7326922;19;9754;-70
2024/01/27 07:22:40;;;;;;;;;;;17.80;58.40;;;;;;7326356;19;9286;-70
2024/01/27 07:25:10;;;;;;;;;;;17.80;58.50;;;;;;7327373;19;9403;-70
2024/01/27 07:27:39;;;;;;;;;;;17.70;58.40;;;;;;7327069;19;9308;-70
2024/01/27 07:30:11;;;;;;;;;;;17.80;58.50;;;;;;7327007;19;10040;-69
2024/01/27 07:32:44;;;;;;;;;;;17.80;58.40;;;;;;7326607;19;9064;-70
2024/01/27 07:35:12;;;;;;;;;;;17.80;58.30;;;;;;7327497;19;9241;-70
2024/01/27 07:37:43;;;;;;;;;;;17.90;58.30;;;;;;7326407;19;9164;-69
2024/01/27 07:40:13;;;;;;;;;;;17.90;58.20;;;;;;7328402;19;9283;-69
2024/01/27 07:42:42;;;;;;;;;;;18.00;58.20;;;;;;7327512;19;9258;-70
2024/01/27 07:45:11;;;;;;;;;;;18.00;58.20;;;;;;7331102;19;9158;-69
2024/01/27 07:47:43;;;;;;;;;;;18.10;58.20;;;;;;7327696;19;9165;-70
2024/01/27 07:50:12;;;;;;;;;;;18.20;58.20;;;;;;7326265;19;9205;-70
2024/01/27 07:52:42;;;;;;;;;;;18.20;58.00;;;;;;7325617;19;9244;-70
2024/01/27 07:55:12;;;;;;;;;;;18.30;58.00;;;;;;7326518;19;10005;-69
2024/01/27 07:57:41;;;;;;;;;;;18.30;58.00;;;;;;7326155;19;9209;-69
2024/01/27 08:00:12;;;;;;;;;;;18.40;57.90;;;;;;7325134;19;9924;-69
2024/01/27 08:02:43;;;;;;;;;;;18.50;57.80;;;;;;7326101;19;9327;-69
2024/01/27 08:05:12;;;;;;;;;;;18.50;57.80;;;;;;7326041;19;9309;-69
2024/01/27 08:07:41;;;;;;;;;;;18.60;57.70;;;;;;7323171;19;9023;-69
2024/01/27 08:10:11;;;;;;;;;;;18.60;57.70;;;;;;7324541;19;9242;-70
2024/01/27 08:12:40;;;;;;;;;;;18.60;57.60;;;;;;7325876;19;9024;-69
2024/01/27 08:15:10;;;;;;;;;;;18.60;57.50;;;;;;7324913;19;9955;-70
2024/01/27 08:17:39;;;;;;;;;;;18.70;57.50;;;;;;7326077;19;9662;-69
2024/01/27 08:20:12;;;;;;;;;;;18.70;57.50;;;;;;7325129;19;9328;-70
2024/01/27 08:22:41;;;;;;;;;;;18.70;57.40;;;;;;7325449;19;9221;-69
2024/01/27 08:25:10;;;;;;;;;;;18.70;57.30;;;;;;7325849;19;9024;-70
2024/01/27 08:27:39;;;;;;;;;;;18.70;57.30;;;;;;7325621;19;9447;-70
2024/01/27 08:30:10;;;;;;;;;;;18.70;57.20;;;;;;7325463;19;9260;-69
2024/01/27 08:32:39;;;;;;;;;;;18.70;57.20;;;;;;7324638;19;9174;-69
2024/01/27 08:35:12;;;;;;;;;;;18.60;57.20;;;;;;7325424;19;9321;-69
2024/01/27 08:37:41;;;;;;;;;;;18.60;57.10;;;;;;7325041;19;9016;-69
2024/01/27 08:40:12;;;;;;;;;;;18.60;57.10;;;;;;7325302;19;9756;-69
2024/01/27 08:42:40;;;;;;;;;;;18.60;57.10;;;;;;7324749;19;9154;-69
2024/01/27 08:45:10;;;;;;;;;;;18.50;57.20;;;;;;7324916;19;9229;-69
2024/01/27 08:47:39;;;;;;;;;;;18.50;57.30;;;;;;7324332;19;9250;-69
2024/01/27 08:50:13;;;;;;;;;;;18.50;57.30;;;;;;7324085;19;9217;-70
2024/01/27 08:52:42;;;;;;;;;;;18.40;57.40;;;;;;7324138;19;9253;-69
2024/01/27 08:55:11;;;;;;;;;;;18.40;57.40;;;;;;7325337;19;9226;-69
2024/01/27 08:57:40;;;;;;;;;;;18.30;57.50;;;;;;7324707;19;9146;-69
2024/01/27 09:00:12;;;;;;;;;;;18.30;57.40;;;;;;7324959;19;9015;-69
2024/01/27 09:02:42;;;;;;;;;;;18.30;57.60;;;;;;7324012;19;9311;-70
2024/01/27 09:05:14;;;;;;;;;;;18.20;57.50;;;;;;7323866;19;9241;-69
2024/01/27 09:07:44;;;;;;;;;;;18.20;57.60;;;;;;7324600;19;9319;-69
2024/01/27 09:10:15;;;;;;;;;;;18.20;57.70;;;;;;7324422;19;9263;-70
2024/01/27 09:12:45;;;;;;;;;;;18.20;57.70;;;;;;7324153;19;9514;-70
2024/01/27 09:15:15;;;;;;;;;;;18.10;57.70;;;;;;7321829;19;9377;-70
2024/01/27 09:17:44;;;;;;;;;;;18.10;57.80;;;;;;7323811;19;9671;-69
2024/01/27 09:20:16;;;;;;;;;;;18.10;57.90;;;;;;7328590;19;9016;-69
2024/01/27 09:22:47;;;;;;;;;;;18.10;58.00;;;;;;7330917;19;9153;-70
2024/01/27 09:25:16;;;;;;;;;;;18.00;57.90;;;;;;7330391;19;9247;-70
2024/01/27 09:27:45;;;;;;;;;;;18.00;58.00;;;;;;7330149;19;9337;-69
2024/01/27 09:30:15;;;;;;;;;;;18.00;58.10;;;;;;7329496;19;9250;-69
2024/01/27 09:32:44;;;;;;;;;;;18.00;58.20;;;;;;7329040;19;9809;-70
2024/01/27 09:35:16;;;;;;;;;;;17.90;58.10;;;;;;7330801;19;9539;-69
2024/01/27 09:37:46;;;;;;;;;;;17.90;58.10;;;;;;7329819;19;9166;-69
2024/01/27 09:40:15;;;;;;;;;;;17.90;58.20;;;;;;7330356;19;9301;-69
2024/01/27 09:42:53;;;;;;;;;;;17.90;58.20;;;;;;7329590;19;9740;-70
2024/01/27 09:45:23;;;;;;;;;;;17.90;58.20;;;;;;7329690;19;9251;-70
2024/01/27 09:47:53;;;;;;;;;;;17.90;58.20;;;;;;7329484;19;9229;-70
2024/01/27 09:50:25;;;;;;;;;;;17.90;58.20;;;;;;7330103;19;9134;-70
2024/01/27 09:52:55;;;;;;;;;;;17.90;58.20;;;;;;7330357;19;9142;-70
2024/01/27 09:55:24;;;;;;;;;;;17.90;58.20;;;;;;7329059;19;11163;-71
2024/01/27 09:57:54;;;;;;;;;;;17.90;58.10;;;;;;7329663;19;10050;-69
2024/01/27 10:00:25;;;;;;;;;;;18.00;58.20;;;;;;7328982;19;9235;-70
2024/01/27 10:02:57;;;;;;;;;;;18.00;58.10;;;;;;7330576;19;9051;-70
2024/01/27 10:05:30;;;;;;;;;;;18.10;58.00;;;;;;7332329;19;9323;-67
2024/01/27 10:07:59;;;;;;;;;;;18.10;58.00;;;;;;7330279;19;9754;-68
2024/01/27 10:10:28;;;;;;;;;;;18.10;57.90;;;;;;7328661;19;9312;-69
2024/01/27 10:13:03;;;;;;;;;;;18.30;58.00;;;;;;7328206;19;9118;-67
2024/01/27 10:15:33;;;;;;;;;;;18.30;57.90;;;;;;7329032;19;9227;-68
2024/01/27 10:18:12;;;;;;;;;;;18.40;57.80;;;;;;7328002;19;9225;-67
2024/01/27 10:20:47;;;;;;;;;;;18.40;57.70;;;;;;7328549;19;9314;-68
2024/01/27 10:23:17;;;;;;;;;;;18.50;57.60;;;;;;7328146;19;10304;-67
2024/01/27 10:25:47;;;;;;;;;;;18.60;57.60;;;;;;7328253;19;9702;-67
2024/01/27 10:28:17;;;;;;;;;;;18.60;57.40;;;;;;7327584;19;9251;-67
2024/01/27 10:30:48;;;;;;;;;;;18.70;57.40;;;;;;7326419;19;9204;-67
2024/01/27 10:33:18;;;;;;;;;;;18.70;57.30;;;;;;7328171;19;9289;-67
2024/01/27 10:36:01;;;;;;;;;;;18.80;57.30;;;;;;7328067;19;9319;-67
2024/01/27 10:38:37;;;;;;;;;;;18.80;57.30;;;;;;7328372;19;9262;-67
2024/01/27 10:41:11;;;;;;;;;;;18.80;57.30;;;;;;7327854;19;9310;-70
2024/01/27 10:43:42;;;;;;;;;;;18.80;57.20;;;;;;7328663;19;9720;-70
2024/01/27 10:46:13;;;;;;;;;;;18.80;57.20;;;;;;7326310;19;9218;-70
2024/01/27 10:48:47;;;;;;;;;;;18.80;57.20;;;;;;7328568;19;9265;-70
2024/01/27 10:51:25;;;;;;;;;;;18.80;57.20;;;;;;7327741;19;9067;-70
2024/01/27 10:54:02;;;;;;;;;;;18.80;57.20;;;;;;7325119;19;9290;-68
2024/01/27 10:56:34;;;;;;;;;;;18.80;57.20;;;;;;7327708;19;9251;-68
2024/01/27 10:59:08;;;;;;;;;;;18.80;57.30;;;;;;7327253;19;10100;-68
2024/01/27 11:01:42;;;;;;;;;;;18.80;57.30;;;;;;7327691;19;9221;-68
2024/01/27 11:04:16;;;;;;;;;;;18.80;57.30;;;;;;7326696;19;9192;-68
2024/01/27 11:06:50;;;;;;;;;;;18.80;57.40;;;;;;7327473;19;9015;-68
2024/01/27 11:09:22;;;;;;;;;;;18.80;57.50;;;;;;7327086;19;9263;-69
2024/01/27 11:11:53;;;;;;;;;;;18.70;57.50;;;;;;7327124;19;9209;-69
2024/01/27 11:14:22;;;;;;;;;;;18.70;57.40;;;;;;7327097;19;9735;-68
2024/01/27 11:16:57;;;;;;;;;;;18.70;58.20;;;;;;7326716;19;9195;-69
2024/01/27 11:19:25;;;;;;;;;;;18.70;57.50;;;;;;7327836;19;9229;-69
2024/01/27 11:22:06;;;;;;;;;;;18.70;57.60;;;;;;7327697;19;10154;-69
2024/01/27 11:24:36;;;;;;;;;;;18.60;57.50;;;;;;7326639;19;9284;-69
2024/01/27 11:27:07;;;;;;;;;;;18.70;57.60;;;;;;7327065;19;9161;-69
2024/01/27 11:29:49;;;;;;;;;;;18.60;57.70;;;;;;7326116;19;9146;-69
2024/01/27 11:32:19;;;;;;;;;;;18.60;57.70;;;;;;7327658;19;9340;-69
2024/01/27 11:34:50;;;;;;;;;;;18.60;57.70;;;;;;7326553;19;9988;-69
2024/01/27 11:37:27;;;;;;;;;;;18.60;57.80;;;;;;7327077;19;9505;-69
2024/01/27 11:40:07;;;;;;;;;;;18.60;57.80;;;;;;7327043;19;9758;-69
2024/01/27 11:42:37;;;;;;;;;;;18.60;57.90;;;;;;7325966;19;9126;-69
2024/01/27 11:45:07;;;;;;;;;;;18.50;58.00;;;;;;7326672;19;9170;-69
2024/01/27 11:47:38;;;;;;;;;;;18.60;58.10;;;;;;7326574;19;8948;-69
2024/01/27 11:50:09;;;;;;;;;;;18.60;58.20;;;;;;7326517;19;9290;-69
2024/01/27 11:52:41;;;;;;;;;;;18.60;58.20;;;;;;7326805;19;9274;-69
2024/01/27 11:55:15;;;;;;;;;;;18.50;58.10;;;;;;7326132;19;9293;-69
2024/01/27 11:57:44;;;;;;;;;;;18.50;58.20;;;;;;7326408;19;9019;-69
2024/01/27 12:00:15;;;;;;;;;;;18.60;58.20;;;;;;7326624;19;9229;-68
2024/01/27 12:02:45;;;;;;;;;;;18.50;58.20;;;;;;7326894;19;9193;-69
2024/01/27 12:05:15;;;;;;;;;;;18.60;58.30;;;;;;7325874;19;9229;-69
2024/01/27 12:07:48;;;;;;;;;;;18.50;58.30;;;;;;7327229;19;9213;-69
2024/01/27 12:10:18;;;;;;;;;;;18.50;58.20;;;;;;7325252;19;9101;-70
2024/01/27 12:12:47;;;;;;;;;;;18.60;58.20;;;;;;7325711;19;9221;-69
2024/01/27 12:15:20;;;;;;;;;;;18.50;58.20;;;;;;7325396;19;9189;-70
2024/01/27 12:17:53;;;;;;;;;;;18.60;58.30;;;;;;7326188;19;8952;-69
2024/01/27 12:20:26;;;;;;;;;;;18.50;59.00;;;;;;7326291;19;9138;-69
2024/01/27 12:23:08;;;;;;;;;;;18.60;58.40;;;;;;7322881;19;9209;-69
2024/01/27 12:25:38;;;;;;;;;;;18.60;58.40;;;;;;7328140;19;9182;-70
2024/01/27 12:28:09;;;;;;;;;;;18.60;58.40;;;;;;7326527;19;9336;-69
2024/01/27 12:30:39;;;;;;;;;;;18.60;58.40;;;;;;7325583;19;9021;-70
2024/01/27 12:33:14;;;;;;;;;;;18.60;58.40;;;;;;7325501;19;9186;-70
2024/01/27 12:35:44;;;;;;;;;;;18.60;58.40;;;;;;7325249;19;9269;-70
2024/01/27 12:38:16;;;;;;;;;;;18.60;58.30;;;;;;7325013;19;10096;-69
2024/01/27 12:40:46;;;;;;;;;;;18.60;58.40;;;;;;7323250;19;9015;-70
2024/01/27 12:43:17;;;;;;;;;;;18.60;58.40;;;;;;7325335;19;9154;-69
2024/01/27 12:45:47;;;;;;;;;;;18.60;58.40;;;;;;7324287;19;9320;-70
2024/01/27 12:48:17;;;;;;;;;;;18.60;58.30;;;;;;7325261;19;9263;-69
2024/01/27 12:50:46;;;;;;;;;;;18.60;58.40;;;;;;7323819;19;9194;-69
2024/01/27 12:53:19;;;;;;;;;;;18.60;58.30;;;;;;7323235;19;9331;-69
2024/01/27 12:55:48;;;;;;;;;;;18.60;58.30;;;;;;7323353;19;9405;-69
2024/01/27 12:58:18;;;;;;;;;;;18.60;58.30;;;;;;7324663;19;9213;-69
2024/01/27 13:00:48;;;;;;;;;;;18.70;58.30;;;;;;7322567;19;9205;-69
2024/01/27 13:03:18;;;;;;;;;;;18.70;58.40;;;;;;7323315;19;8948;-69
2024/01/27 13:05:48;;;;;;;;;;;18.70;58.30;;;;;;7324112;19;9162;-69
2024/01/27 13:08:20;;;;;;;;;;;18.70;58.30;;;;;;7323892;19;9194;-69
2024/01/27 13:10:50;;;;;;;;;;;18.70;58.40;;;;;;7323848;19;10405;-69
2024/01/27 13:13:20;;;;;;;;;;;18.70;58.30;;;;;;7323265;19;9356;-70
2024/01/27 13:15:50;;;;;;;;;;;18.70;58.30;;;;;;7323218;19;8948;-69
2024/01/27 13:18:20;;;;;;;;;;;18.70;58.30;;;;;;7322719;19;9205;-69
2024/01/27 13:20:49;;;;;;;;;;;18.80;58.40;;;;;;7324283;19;9213;-69
2024/01/27 13:23:22;;;;;;;;;;;18.70;58.30;;;;;;7323089;19;9005;-69
2024/01/27 13:25:52;;;;;;;;;;;18.70;58.30;;;;;;7323575;19;9136;-70
2024/01/27 13:28:21;;;;;;;;;;;18.70;58.30;;;;;;7322773;19;9190;-69
2024/01/27 13:30:51;;;;;;;;;;;18.80;58.40;;;;;;7323322;19;9049;-69
2024/01/27 13:33:21;;;;;;;;;;;18.70;58.30;;;;;;7323458;19;9162;-70
2024/01/27 13:35:51;;;;;;;;;;;18.70;58.30;;;;;;7323014;19;9165;-69
2024/01/27 13:38:24;;;;;;;;;;;18.70;58.40;;;;;;7323471;19;9221;-69
2024/01/27 13:40:54;;;;;;;;;;;18.70;58.30;;;;;;7321921;19;9148;-69
2024/01/27 13:43:23;;;;;;;;;;;18.70;58.30;;;;;;7322674;19;9031;-69
2024/01/27 13:45:54;;;;;;;;;;;18.70;58.30;;;;;;7322666;19;9205;-69
2024/01/27 13:48:24;;;;;;;;;;;18.70;58.40;;;;;;7323599;19;9102;-69
2024/01/27 13:50:55;;;;;;;;;;;18.60;58.30;;;;;;7321964;19;9241;-69
2024/01/27 13:53:27;;;;;;;;;;;18.70;58.40;;;;;;7322473;19;9272;-69
2024/01/27 13:56:00;;;;;;;;;;;18.70;58.40;;;;;;7322211;19;8940;-69
2024/01/27 13:58:29;;;;;;;;;;;18.60;58.30;;;;;;7322001;19;10072;-69
2024/01/27 14:00:59;;;;;;;;;;;18.60;58.40;;;;;;7322640;19;9201;-69
2024/01/27 14:03:29;;;;;;;;;;;18.60;58.40;;;;;;7321769;19;9262;-69
2024/01/27 14:05:59;;;;;;;;;;;18.60;58.40;;;;;;7326247;19;9306;-69
2024/01/27 14:08:31;;;;;;;;;;;18.60;58.40;;;;;;7328216;19;9194;-69
2024/01/27 14:11:01;;;;;;;;;;;18.60;58.40;;;;;;7329022;19;9170;-69
2024/01/27 14:13:31;;;;;;;;;;;18.60;58.40;;;;;;7327629;19;9211;-69
2024/01/27 14:16:00;;;;;;;;;;;18.70;58.50;;;;;;7327437;19;9809;-69
2024/01/27 14:18:31;;;;;;;;;;;18.60;58.40;;;;;;7327303;19;9298;-69
2024/01/27 14:21:01;;;;;;;;;;;18.70;58.50;;;;;;7328675;19;9316;-69
2024/01/27 14:23:33;;;;;;;;;;;18.70;58.60;;;;;;7328318;19;9275;-69
2024/01/27 14:26:03;;;;;;;;;;;18.70;58.60;;;;;;7327984;19;9529;-69
2024/01/27 14:28:33;;;;;;;;;;;18.70;58.50;;;;;;7328617;19;9975;-69
2024/01/27 14:31:03;;;;;;;;;;;18.70;58.60;;;;;;7327340;19;9269;-69
2024/01/27 14:33:32;;;;;;;;;;;18.60;58.50;;;;;;7328491;19;9233;-69
2024/01/27 14:36:02;;;;;;;;;;;18.70;58.60;;;;;;7327091;19;9312;-69
2024/01/27 14:38:35;;;;;;;;;;;18.70;58.60;;;;;;7327334;19;9237;-69
2024/01/27 14:41:05;;;;;;;;;;;18.60;59.30;;;;;;7327350;19;9503;-69
2024/01/27 14:43:35;;;;;;;;;;;18.70;58.70;;;;;;7328480;19;9204;-69
2024/01/27 14:46:05;;;;;;;;;;;18.70;58.60;;;;;;7329276;19;9391;-69
2024/01/27 14:48:35;;;;;;;;;;;18.60;58.60;;;;;;7330471;19;9731;-69